Nearby METAR Reports

Aktualna pogoda na lotniskach (dane METAR)

 

EPGD - Gdansk/Rebiechow, Poland
Distance from station: ENE 27mi, 44km
Updated: Tue, 05-Jul-2022 5:30pm PDT
Clear
Clear
 Wind from varies
Wind: varies 1 mph , 2 km/h
Temperature: 52°F , 11°C
Dew Point: 48°F , 9°C
Humidity: 88%
Barometer: 30.06 inHg , 1018 hPa
Summary: Clear
Visibility: greater than 7 miles , 10 km
2022/07/06 00:30 EPGD 060030Z VRB01KT CAVOK 11/09 Q1018
EPSC - Szczecin/Golenio, Poland
Distance from station: WSW 128mi, 205km
Updated: Tue, 05-Jul-2022 5:30pm PDT
Clear
Clear
 Wind from WSW
Wind: WSW 3 mph , 6 km/h
Temperature: 57°F , 14°C
Dew Point: 52°F , 11°C
Humidity: 82%
Barometer: 30.12 inHg , 1020 hPa
Summary: Clear
Visibility: greater than 7 miles , 10 km
2022/07/06 00:30 EPSC 060030Z 24003KT 190V300 CAVOK 14/11 Q1020
 
EPPO - Poznan/Lawica, Poland
Distance from station: SSW 131mi, 210km
Updated: Tue, 05-Jul-2022 5:30pm PDT
Clear
Clear
 Wind from N
Wind: N 5 mph , 7 km/h
Temperature: 57°F , 14°C
Dew Point: 52°F , 11°C
Humidity: 82%
Barometer: 30.09 inHg , 1019 hPa
Summary: Clear
Visibility: greater than 7 miles , 10 km
2022/07/06 00:30 EPPO 060030Z 01004KT CAVOK 14/11 Q1019
EPLL - Lodz/Lublinek, Poland
Distance from station: SSE 184mi, 296km
Updated: Tue, 05-Jul-2022 5:30pm PDT
Mist, Partly cloudy
Mist, Partly cloudy
 Wind from varies
Wind: varies 1 mph , 2 km/h
Temperature: 59°F , 15°C
Dew Point: 57°F , 14°C
Humidity: 94%
Barometer: 30.06 inHg , 1018 hPa
Summary: Mist
Clouds: Partly Cloudy
Visibility: 3 miles , 5 km
2022/07/06 00:30 EPLL 060030Z VRB01KT 4800 BR NSC 15/14 Q1018
 
EPWA - Warsaw/Okecie, Poland
Distance from station: SE 191mi, 307km
Updated: Tue, 05-Jul-2022 5:30pm PDT
Light rain, Mostly cloudy
Light rain, Mostly cloudy
 Wind from NNW
Wind: NNW 10 mph , 17 km/h
Temperature: 63°F , 17°C
Dew Point: 61°F , 16°C
Humidity: 94%
Barometer: 30.03 inHg , 1017 hPa
Summary: Light Rain
Clouds: Mostly Cloudy
Visibility: 6 miles , 10 km
Cloud details: Mostly Cloudy 4000 ft
2022/07/06 00:30 EPWA 060030Z 34009KT 9999 -RA BKN040 17/16 Q1017 TEMPO RA
EPWR - Wroclaw/Strachow, Poland
Distance from station: S 219mi, 352km
Updated: Tue, 05-Jul-2022 5:30pm PDT
Clear
Clear
 Wind from WNW
Wind: WNW 3 mph , 6 km/h
Temperature: 57°F , 14°C
Dew Point: 55°F , 13°C
Humidity: 94%
Barometer: 30.09 inHg , 1019 hPa
Summary: Clear
Visibility: greater than 7 miles , 10 km
2022/07/06 00:30 EPWR 060030Z 29003KT CAVOK 14/13 Q1019

Metar display script from Saratoga-Weather.org